sensor_id;sensor_type;location;lat;lon;timestamp;temperature;humidity
4578;DHT22;2301;47.354;8.528;2024-01-30T00:01:55;9.80;92.90
4578;DHT22;2301;47.354;8.528;2024-01-30T00:04:22;9.80;92.90
4578;DHT22;2301;47.354;8.528;2024-01-30T00:06:51;9.80;92.70
4578;DHT22;2301;47.354;8.528;2024-01-30T00:09:18;9.80;92.70
4578;DHT22;2301;47.354;8.528;2024-01-30T00:11:45;9.80;92.80
4578;DHT22;2301;47.354;8.528;2024-01-30T00:14:14;9.80;92.60
4578;DHT22;2301;47.354;8.528;2024-01-30T00:16:41;9.70;91.90
4578;DHT22;2301;47.354;8.528;2024-01-30T00:19:08;9.70;92.30
4578;DHT22;2301;47.354;8.528;2024-01-30T00:21:35;9.70;92.40
4578;DHT22;2301;47.354;8.528;2024-01-30T00:24:03;9.70;92.50
4578;DHT22;2301;47.354;8.528;2024-01-30T00:26:30;9.70;92.60
4578;DHT22;2301;47.354;8.528;2024-01-30T00:28:57;9.70;92.50
4578;DHT22;2301;47.354;8.528;2024-01-30T00:31:25;9.70;92.40
4578;DHT22;2301;47.354;8.528;2024-01-30T00:33:52;9.70;92.40
4578;DHT22;2301;47.354;8.528;2024-01-30T00:36:19;9.70;92.20
4578;DHT22;2301;47.354;8.528;2024-01-30T00:38:46;9.70;92.30
4578;DHT22;2301;47.354;8.528;2024-01-30T00:41:13;9.70;92.40
4578;DHT22;2301;47.354;8.528;2024-01-30T00:43:40;9.70;91.80
4578;DHT22;2301;47.354;8.528;2024-01-30T00:46:07;9.70;91.70
4578;DHT22;2301;47.354;8.528;2024-01-30T00:48:36;9.70;91.90
4578;DHT22;2301;47.354;8.528;2024-01-30T00:51:03;9.70;92.00
4578;DHT22;2301;47.354;8.528;2024-01-30T00:53:30;9.70;92.00
4578;DHT22;2301;47.354;8.528;2024-01-30T00:55:57;9.70;92.00
4578;DHT22;2301;47.354;8.528;2024-01-30T00:58:25;9.70;91.70
4578;DHT22;2301;47.354;8.528;2024-01-30T01:00:51;9.70;91.80
4578;DHT22;2301;47.354;8.528;2024-01-30T01:03:18;9.70;91.80
4578;DHT22;2301;47.354;8.528;2024-01-30T01:05:47;9.70;91.70
4578;DHT22;2301;47.354;8.528;2024-01-30T01:08:14;9.60;91.50
4578;DHT22;2301;47.354;8.528;2024-01-30T01:10:41;9.60;91.70
4578;DHT22;2301;47.354;8.528;2024-01-30T01:13:08;9.50;89.70
4578;DHT22;2301;47.354;8.528;2024-01-30T01:15:35;9.10;84.20
4578;DHT22;2301;47.354;8.528;2024-01-30T01:18:03;8.70;81.30
4578;DHT22;2301;47.354;8.528;2024-01-30T01:20:30;8.40;79.70
4578;DHT22;2301;47.354;8.528;2024-01-30T01:22:58;8.10;79.00
4578;DHT22;2301;47.354;8.528;2024-01-30T01:25:25;7.80;78.70
4578;DHT22;2301;47.354;8.528;2024-01-30T01:27:52;7.50;78.60
4578;DHT22;2301;47.354;8.528;2024-01-30T01:30:19;7.30;78.60
4578;DHT22;2301;47.354;8.528;2024-01-30T01:32:48;7.10;78.80
4578;DHT22;2301;47.354;8.528;2024-01-30T01:35:21;6.90;79.20
4578;DHT22;2301;47.354;8.528;2024-01-30T01:37:48;6.80;79.60
4578;DHT22;2301;47.354;8.528;2024-01-30T01:40:22;6.60;79.90
4578;DHT22;2301;47.354;8.528;2024-01-30T01:42:50;6.50;80.30
4578;DHT22;2301;47.354;8.528;2024-01-30T01:45:17;6.30;80.50
4578;DHT22;2301;47.354;8.528;2024-01-30T01:47:47;6.20;80.80
4578;DHT22;2301;47.354;8.528;2024-01-30T01:50:16;6.10;80.90
4578;DHT22;2301;47.354;8.528;2024-01-30T01:52:44;6.00;81.20
4578;DHT22;2301;47.354;8.528;2024-01-30T01:55:12;5.90;81.40
4578;DHT22;2301;47.354;8.528;2024-01-30T01:57:41;5.90;81.60
4578;DHT22;2301;47.354;8.528;2024-01-30T02:00:09;5.80;81.70
4578;DHT22;2301;47.354;8.528;2024-01-30T02:02:37;5.70;81.80
4578;DHT22;2301;47.354;8.528;2024-01-30T02:05:08;5.60;81.90
4578;DHT22;2301;47.354;8.528;2024-01-30T02:07:35;5.60;82.10
4578;DHT22;2301;47.354;8.528;2024-01-30T02:10:02;5.50;82.50
4578;DHT22;2301;47.354;8.528;2024-01-30T02:12:30;5.50;82.90
4578;DHT22;2301;47.354;8.528;2024-01-30T02:14:58;5.40;83.10
4578;DHT22;2301;47.354;8.528;2024-01-30T02:17:25;5.40;83.30
4578;DHT22;2301;47.354;8.528;2024-01-30T02:19:52;5.30;83.50
4578;DHT22;2301;47.354;8.528;2024-01-30T02:22:21;5.30;83.70
4578;DHT22;2301;47.354;8.528;2024-01-30T02:24:49;5.20;83.80
4578;DHT22;2301;47.354;8.528;2024-01-30T02:27:16;5.20;83.90
4578;DHT22;2301;47.354;8.528;2024-01-30T02:29:43;5.20;84.20
4578;DHT22;2301;47.354;8.528;2024-01-30T02:32:10;5.10;84.40
4578;DHT22;2301;47.354;8.528;2024-01-30T02:34:37;5.00;84.50
4578;DHT22;2301;47.354;8.528;2024-01-30T02:37:04;5.00;84.60
4578;DHT22;2301;47.354;8.528;2024-01-30T02:39:33;5.00;84.80
4578;DHT22;2301;47.354;8.528;2024-01-30T02:41:59;5.00;84.80
4578;DHT22;2301;47.354;8.528;2024-01-30T02:44:26;5.00;84.90
4578;DHT22;2301;47.354;8.528;2024-01-30T02:46:53;4.90;84.80
4578;DHT22;2301;47.354;8.528;2024-01-30T02:49:21;4.90;84.80
4578;DHT22;2301;47.354;8.528;2024-01-30T02:51:48;4.90;84.90
4578;DHT22;2301;47.354;8.528;2024-01-30T02:54:15;4.80;84.80
4578;DHT22;2301;47.354;8.528;2024-01-30T02:56:43;4.80;85.00
4578;DHT22;2301;47.354;8.528;2024-01-30T02:59:10;4.80;85.10
4578;DHT22;2301;47.354;8.528;2024-01-30T03:01:43;4.70;85.30
4578;DHT22;2301;47.354;8.528;2024-01-30T03:04:10;4.80;85.60
4578;DHT22;2301;47.354;8.528;2024-01-30T03:06:38;4.70;85.70
4578;DHT22;2301;47.354;8.528;2024-01-30T03:09:05;4.70;85.70
4578;DHT22;2301;47.354;8.528;2024-01-30T03:11:32;4.70;85.80
4578;DHT22;2301;47.354;8.528;2024-01-30T03:14:00;4.60;85.90
4578;DHT22;2301;47.354;8.528;2024-01-30T03:16:27;4.60;86.10
4578;DHT22;2301;47.354;8.528;2024-01-30T03:18:55;4.60;86.30
4578;DHT22;2301;47.354;8.528;2024-01-30T03:21:22;4.60;86.50
4578;DHT22;2301;47.354;8.528;2024-01-30T03:23:49;4.60;86.50
4578;DHT22;2301;47.354;8.528;2024-01-30T03:26:16;4.60;86.60
4578;DHT22;2301;47.354;8.528;2024-01-30T03:28:42;4.50;86.50
4578;DHT22;2301;47.354;8.528;2024-01-30T03:31:13;4.60;86.60
4578;DHT22;2301;47.354;8.528;2024-01-30T03:33:41;4.50;86.50
4578;DHT22;2301;47.354;8.528;2024-01-30T03:36:08;4.50;86.40
4578;DHT22;2301;47.354;8.528;2024-01-30T03:38:35;4.50;86.60
4578;DHT22;2301;47.354;8.528;2024-01-30T03:41:03;4.40;86.80
4578;DHT22;2301;47.354;8.528;2024-01-30T03:43:30;4.40;87.00
4578;DHT22;2301;47.354;8.528;2024-01-30T03:45:57;4.40;87.10
4578;DHT22;2301;47.354;8.528;2024-01-30T03:48:25;4.40;87.10
4578;DHT22;2301;47.354;8.528;2024-01-30T03:50:52;4.40;87.00
4578;DHT22;2301;47.354;8.528;2024-01-30T03:53:19;4.40;87.10
4578;DHT22;2301;47.354;8.528;2024-01-30T03:55:46;4.30;87.00
4578;DHT22;2301;47.354;8.528;2024-01-30T03:58:13;4.30;87.10
4578;DHT22;2301;47.354;8.528;2024-01-30T04:00:40;4.30;87.10
4578;DHT22;2301;47.354;8.528;2024-01-30T04:03:07;4.30;87.10
4578;DHT22;2301;47.354;8.528;2024-01-30T04:05:36;4.30;87.10
4578;DHT22;2301;47.354;8.528;2024-01-30T04:08:04;4.30;87.10
4578;DHT22;2301;47.354;8.528;2024-01-30T04:10:31;4.30;87.10
4578;DHT22;2301;47.354;8.528;2024-01-30T04:12:58;4.30;87.20
4578;DHT22;2301;47.354;8.528;2024-01-30T04:15:25;4.30;87.30
4578;DHT22;2301;47.354;8.528;2024-01-30T04:17:52;4.30;87.30
4578;DHT22;2301;47.354;8.528;2024-01-30T04:20:19;4.30;87.30
4578;DHT22;2301;47.354;8.528;2024-01-30T04:22:47;4.20;87.20
4578;DHT22;2301;47.354;8.528;2024-01-30T04:25:15;4.20;87.30
4578;DHT22;2301;47.354;8.528;2024-01-30T04:27:42;4.20;87.40
4578;DHT22;2301;47.354;8.528;2024-01-30T04:30:10;4.20;87.40
4578;DHT22;2301;47.354;8.528;2024-01-30T04:32:37;4.20;87.40
4578;DHT22;2301;47.354;8.528;2024-01-30T04:35:04;4.20;87.40
4578;DHT22;2301;47.354;8.528;2024-01-30T04:37:31;4.20;87.60
4578;DHT22;2301;47.354;8.528;2024-01-30T04:40:00;4.10;87.50
4578;DHT22;2301;47.354;8.528;2024-01-30T04:42:30;4.20;87.60
4578;DHT22;2301;47.354;8.528;2024-01-30T04:45:00;4.10;87.60
4578;DHT22;2301;47.354;8.528;2024-01-30T04:47:31;4.20;87.90
4578;DHT22;2301;47.354;8.528;2024-01-30T04:49:58;4.10;88.00
4578;DHT22;2301;47.354;8.528;2024-01-30T04:52:25;4.10;88.10
4578;DHT22;2301;47.354;8.528;2024-01-30T04:54:52;4.10;88.40
4578;DHT22;2301;47.354;8.528;2024-01-30T04:57:20;4.10;88.40
4578;DHT22;2301;47.354;8.528;2024-01-30T04:59:47;4.20;88.70
4578;DHT22;2301;47.354;8.528;2024-01-30T05:02:15;4.20;88.90
4578;DHT22;2301;47.354;8.528;2024-01-30T05:04:42;4.20;88.90
4578;DHT22;2301;47.354;8.528;2024-01-30T05:07:09;4.20;88.90
4578;DHT22;2301;47.354;8.528;2024-01-30T05:09:36;4.10;88.70
4578;DHT22;2301;47.354;8.528;2024-01-30T05:12:03;4.10;88.60
4578;DHT22;2301;47.354;8.528;2024-01-30T05:14:32;4.10;88.60
4578;DHT22;2301;47.354;8.528;2024-01-30T05:16:59;4.10;88.60
4578;DHT22;2301;47.354;8.528;2024-01-30T05:19:28;4.10;88.50
4578;DHT22;2301;47.354;8.528;2024-01-30T05:21:55;4.10;88.50
4578;DHT22;2301;47.354;8.528;2024-01-30T05:24:22;4.00;88.50
4578;DHT22;2301;47.354;8.528;2024-01-30T05:26:49;4.10;88.60
4578;DHT22;2301;47.354;8.528;2024-01-30T05:29:17;4.00;88.50
4578;DHT22;2301;47.354;8.528;2024-01-30T05:31:45;4.10;88.60
4578;DHT22;2301;47.354;8.528;2024-01-30T05:34:12;4.10;88.60
4578;DHT22;2301;47.354;8.528;2024-01-30T05:36:39;4.10;88.60
4578;DHT22;2301;47.354;8.528;2024-01-30T05:39:06;4.00;88.60
4578;DHT22;2301;47.354;8.528;2024-01-30T05:41:33;4.10;88.80
4578;DHT22;2301;47.354;8.528;2024-01-30T05:44:02;4.00;88.60
4578;DHT22;2301;47.354;8.528;2024-01-30T05:46:29;4.10;88.70
4578;DHT22;2301;47.354;8.528;2024-01-30T05:48:58;4.10;88.70
4578;DHT22;2301;47.354;8.528;2024-01-30T05:51:25;4.10;88.80
4578;DHT22;2301;47.354;8.528;2024-01-30T05:53:52;4.10;89.00
4578;DHT22;2301;47.354;8.528;2024-01-30T05:56:19;4.10;89.10
4578;DHT22;2301;47.354;8.528;2024-01-30T05:58:46;4.10;89.00
4578;DHT22;2301;47.354;8.528;2024-01-30T06:01:13;4.10;89.00
4578;DHT22;2301;47.354;8.528;2024-01-30T06:03:40;4.10;89.00
4578;DHT22;2301;47.354;8.528;2024-01-30T06:06:10;4.10;89.10
4578;DHT22;2301;47.354;8.528;2024-01-30T06:08:37;4.10;89.20
4578;DHT22;2301;47.354;8.528;2024-01-30T06:11:04;4.10;89.20
4578;DHT22;2301;47.354;8.528;2024-01-30T06:13:31;4.10;89.20
4578;DHT22;2301;47.354;8.528;2024-01-30T06:15:58;4.10;89.30
4578;DHT22;2301;47.354;8.528;2024-01-30T06:18:25;4.10;89.40
4578;DHT22;2301;47.354;8.528;2024-01-30T06:20:52;4.10;89.40
4578;DHT22;2301;47.354;8.528;2024-01-30T06:23:21;4.10;89.50
4578;DHT22;2301;47.354;8.528;2024-01-30T06:25:48;4.20;89.60
4578;DHT22;2301;47.354;8.528;2024-01-30T06:28:15;4.20;89.60
4578;DHT22;2301;47.354;8.528;2024-01-30T06:30:42;4.20;89.50
4578;DHT22;2301;47.354;8.528;2024-01-30T06:33:12;4.20;89.60
4578;DHT22;2301;47.354;8.528;2024-01-30T06:35:40;4.20;89.70
4578;DHT22;2301;47.354;8.528;2024-01-30T06:38:07;4.20;89.70
4578;DHT22;2301;47.354;8.528;2024-01-30T06:40:36;4.20;89.70
4578;DHT22;2301;47.354;8.528;2024-01-30T06:43:04;4.20;89.70
4578;DHT22;2301;47.354;8.528;2024-01-30T06:45:31;4.20;89.60
4578;DHT22;2301;47.354;8.528;2024-01-30T06:47:58;4.20;89.60
4578;DHT22;2301;47.354;8.528;2024-01-30T06:50:25;4.10;89.60
4578;DHT22;2301;47.354;8.528;2024-01-30T06:52:52;4.10;89.70
4578;DHT22;2301;47.354;8.528;2024-01-30T06:55:19;4.10;89.80
4578;DHT22;2301;47.354;8.528;2024-01-30T06:57:48;4.10;90.00
4578;DHT22;2301;47.354;8.528;2024-01-30T07:00:16;4.10;90.00
4578;DHT22;2301;47.354;8.528;2024-01-30T07:02:45;4.10;90.10
4578;DHT22;2301;47.354;8.528;2024-01-30T07:05:12;4.10;90.10
4578;DHT22;2301;47.354;8.528;2024-01-30T07:07:39;4.10;90.10
4578;DHT22;2301;47.354;8.528;2024-01-30T07:10:07;4.10;90.10
4578;DHT22;2301;47.354;8.528;2024-01-30T07:12:34;4.10;90.10
4578;DHT22;2301;47.354;8.528;2024-01-30T07:15:04;4.10;90.00
4578;DHT22;2301;47.354;8.528;2024-01-30T07:17:33;4.10;90.00
4578;DHT22;2301;47.354;8.528;2024-01-30T07:20:01;4.10;90.00
4578;DHT22;2301;47.354;8.528;2024-01-30T07:22:29;4.20;90.10
4578;DHT22;2301;47.354;8.528;2024-01-30T07:24:56;4.70;97.10
4578;DHT22;2301;47.354;8.528;2024-01-30T07:27:23;4.80;94.10
4578;DHT22;2301;47.354;8.528;2024-01-30T07:29:50;4.80;93.00
4578;DHT22;2301;47.354;8.528;2024-01-30T07:32:19;4.80;92.30
4578;DHT22;2301;47.354;8.528;2024-01-30T07:34:46;4.70;91.80
4578;DHT22;2301;47.354;8.528;2024-01-30T07:37:13;4.70;91.50
4578;DHT22;2301;47.354;8.528;2024-01-30T07:39:41;4.70;91.30
4578;DHT22;2301;47.354;8.528;2024-01-30T07:42:09;4.60;91.10
4578;DHT22;2301;47.354;8.528;2024-01-30T07:44:35;4.60;90.90
4578;DHT22;2301;47.354;8.528;2024-01-30T07:47:03;4.70;90.90
4578;DHT22;2301;47.354;8.528;2024-01-30T07:49:33;4.70;90.90
4578;DHT22;2301;47.354;8.528;2024-01-30T07:52:00;4.70;90.80
4578;DHT22;2301;47.354;8.528;2024-01-30T07:54:27;4.70;90.70
4578;DHT22;2301;47.354;8.528;2024-01-30T07:56:59;4.80;90.60
4578;DHT22;2301;47.354;8.528;2024-01-30T07:59:26;4.80;90.60
4578;DHT22;2301;47.354;8.528;2024-01-30T08:01:53;4.80;90.50
4578;DHT22;2301;47.354;8.528;2024-01-30T08:04:20;4.80;90.50
4578;DHT22;2301;47.354;8.528;2024-01-30T08:06:48;4.80;90.50
4578;DHT22;2301;47.354;8.528;2024-01-30T08:09:15;4.90;90.50
4578;DHT22;2301;47.354;8.528;2024-01-30T08:11:42;4.90;90.50
4578;DHT22;2301;47.354;8.528;2024-01-30T08:14:09;4.90;90.40
4578;DHT22;2301;47.354;8.528;2024-01-30T08:16:36;4.90;90.60
4578;DHT22;2301;47.354;8.528;2024-01-30T08:19:03;4.90;90.70
4578;DHT22;2301;47.354;8.528;2024-01-30T08:21:30;4.90;90.80
4578;DHT22;2301;47.354;8.528;2024-01-30T08:24:03;5.00;90.90
4578;DHT22;2301;47.354;8.528;2024-01-30T08:26:30;5.10;90.90
4578;DHT22;2301;47.354;8.528;2024-01-30T08:28:57;5.20;90.90
4578;DHT22;2301;47.354;8.528;2024-01-30T08:31:24;5.20;90.90
4578;DHT22;2301;47.354;8.528;2024-01-30T08:33:51;5.40;91.00
4578;DHT22;2301;47.354;8.528;2024-01-30T08:36:19;5.40;91.10
4578;DHT22;2301;47.354;8.528;2024-01-30T08:38:45;6.70;99.90
4578;DHT22;2301;47.354;8.528;2024-01-30T08:41:14;6.80;96.80
4578;DHT22;2301;47.354;8.528;2024-01-30T08:43:41;6.90;94.70
4578;DHT22;2301;47.354;8.528;2024-01-30T08:46:12;7.10;93.60
4578;DHT22;2301;47.354;8.528;2024-01-30T08:48:40;7.30;92.60
4578;DHT22;2301;47.354;8.528;2024-01-30T08:51:08;7.40;91.80
4578;DHT22;2301;47.354;8.528;2024-01-30T08:53:35;7.50;91.00
4578;DHT22;2301;47.354;8.528;2024-01-30T08:56:02;7.60;90.30
4578;DHT22;2301;47.354;8.528;2024-01-30T08:58:31;7.70;89.60
4578;DHT22;2301;47.354;8.528;2024-01-30T09:00:58;7.80;89.10
4578;DHT22;2301;47.354;8.528;2024-01-30T09:03:26;8.00;88.60
4578;DHT22;2301;47.354;8.528;2024-01-30T09:05:54;8.10;87.80
4578;DHT22;2301;47.354;8.528;2024-01-30T09:08:22;8.10;86.60
4578;DHT22;2301;47.354;8.528;2024-01-30T09:10:49;8.20;86.00
4578;DHT22;2301;47.354;8.528;2024-01-30T09:13:16;8.30;85.50
4578;DHT22;2301;47.354;8.528;2024-01-30T09:15:44;8.30;85.00
4578;DHT22;2301;47.354;8.528;2024-01-30T09:18:11;8.40;84.50
4578;DHT22;2301;47.354;8.528;2024-01-30T09:20:38;8.40;84.30
4578;DHT22;2301;47.354;8.528;2024-01-30T09:23:05;8.40;83.80
4578;DHT22;2301;47.354;8.528;2024-01-30T09:25:33;8.40;83.50
4578;DHT22;2301;47.354;8.528;2024-01-30T09:28:00;8.50;82.90
4578;DHT22;2301;47.354;8.528;2024-01-30T09:30:27;8.60;82.80
4578;DHT22;2301;47.354;8.528;2024-01-30T09:32:56;8.60;82.30
4578;DHT22;2301;47.354;8.528;2024-01-30T09:35:23;8.60;81.30
4578;DHT22;2301;47.354;8.528;2024-01-30T09:37:50;8.70;81.40
4578;DHT22;2301;47.354;8.528;2024-01-30T09:40:18;8.70;80.90
4578;DHT22;2301;47.354;8.528;2024-01-30T09:42:47;8.70;80.20
4578;DHT22;2301;47.354;8.528;2024-01-30T09:45:18;8.70;79.70
4578;DHT22;2301;47.354;8.528;2024-01-30T09:47:45;8.80;79.20
4578;DHT22;2301;47.354;8.528;2024-01-30T09:50:15;8.80;79.10
4578;DHT22;2301;47.354;8.528;2024-01-30T09:52:42;8.80;79.10
4578;DHT22;2301;47.354;8.528;2024-01-30T09:55:10;8.90;79.40
4578;DHT22;2301;47.354;8.528;2024-01-30T09:57:37;9.00;79.50
4578;DHT22;2301;47.354;8.528;2024-01-30T10:00:05;9.00;79.40
4578;DHT22;2301;47.354;8.528;2024-01-30T10:02:34;9.10;78.90
4578;DHT22;2301;47.354;8.528;2024-01-30T10:05:02;9.20;78.30
4578;DHT22;2301;47.354;8.528;2024-01-30T10:07:30;9.10;77.20
4578;DHT22;2301;47.354;8.528;2024-01-30T10:09:57;9.20;77.60
4578;DHT22;2301;47.354;8.528;2024-01-30T10:12:26;9.20;77.60
4578;DHT22;2301;47.354;8.528;2024-01-30T10:14:56;9.30;77.60
4578;DHT22;2301;47.354;8.528;2024-01-30T10:17:25;9.40;77.30
4578;DHT22;2301;47.354;8.528;2024-01-30T10:19:52;9.40;76.80
4578;DHT22;2301;47.354;8.528;2024-01-30T10:22:19;9.50;77.30
4578;DHT22;2301;47.354;8.528;2024-01-30T10:24:48;9.70;77.50
4578;DHT22;2301;47.354;8.528;2024-01-30T10:27:15;9.90;76.50
4578;DHT22;2301;47.354;8.528;2024-01-30T10:29:42;9.90;75.30
4578;DHT22;2301;47.354;8.528;2024-01-30T10:32:09;10.00;73.80
4578;DHT22;2301;47.354;8.528;2024-01-30T10:34:36;10.20;73.90
4578;DHT22;2301;47.354;8.528;2024-01-30T10:37:08;10.30;73.60
4578;DHT22;2301;47.354;8.528;2024-01-30T10:39:39;10.40;73.40
4578;DHT22;2301;47.354;8.528;2024-01-30T10:42:12;10.50;72.80
4578;DHT22;2301;47.354;8.528;2024-01-30T10:44:52;10.60;72.30
4578;DHT22;2301;47.354;8.528;2024-01-30T10:47:28;10.70;71.70
4578;DHT22;2301;47.354;8.528;2024-01-30T10:49:55;10.80;71.60
4578;DHT22;2301;47.354;8.528;2024-01-30T10:52:23;10.90;71.20
4578;DHT22;2301;47.354;8.528;2024-01-30T10:54:53;11.10;71.00
4578;DHT22;2301;47.354;8.528;2024-01-30T10:57:23;11.20;70.40
4578;DHT22;2301;47.354;8.528;2024-01-30T10:59:52;11.40;69.90
4578;DHT22;2301;47.354;8.528;2024-01-30T11:02:20;11.50;69.50
4578;DHT22;2301;47.354;8.528;2024-01-30T11:04:47;11.40;67.90
4578;DHT22;2301;47.354;8.528;2024-01-30T11:07:15;11.30;66.90
4578;DHT22;2301;47.354;8.528;2024-01-30T11:09:48;11.30;66.60
4578;DHT22;2301;47.354;8.528;2024-01-30T11:12:16;11.30;65.90
4578;DHT22;2301;47.354;8.528;2024-01-30T11:14:50;11.20;65.80
4578;DHT22;2301;47.354;8.528;2024-01-30T11:17:29;11.20;65.90
4578;DHT22;2301;47.354;8.528;2024-01-30T11:20:10;11.30;66.20
4578;DHT22;2301;47.354;8.528;2024-01-30T11:22:37;11.30;66.20
4578;DHT22;2301;47.354;8.528;2024-01-30T11:25:04;11.30;65.30
4578;DHT22;2301;47.354;8.528;2024-01-30T11:27:32;11.40;65.30
4578;DHT22;2301;47.354;8.528;2024-01-30T11:30:03;11.40;65.30
4578;DHT22;2301;47.354;8.528;2024-01-30T11:32:30;11.50;64.90
4578;DHT22;2301;47.354;8.528;2024-01-30T11:34:58;11.50;64.20
4578;DHT22;2301;47.354;8.528;2024-01-30T11:37:25;11.50;64.20
4578;DHT22;2301;47.354;8.528;2024-01-30T11:39:53;11.50;64.50
4578;DHT22;2301;47.354;8.528;2024-01-30T11:42:22;11.50;64.20
4578;DHT22;2301;47.354;8.528;2024-01-30T11:44:51;11.50;64.20
4578;DHT22;2301;47.354;8.528;2024-01-30T11:47:20;11.60;64.50
4578;DHT22;2301;47.354;8.528;2024-01-30T11:49:47;11.70;64.80
4578;DHT22;2301;47.354;8.528;2024-01-30T11:52:14;11.80;64.30
4578;DHT22;2301;47.354;8.528;2024-01-30T11:54:41;11.80;64.30
4578;DHT22;2301;47.354;8.528;2024-01-30T11:57:09;11.90;64.60
4578;DHT22;2301;47.354;8.528;2024-01-30T11:59:35;11.90;65.10
4578;DHT22;2301;47.354;8.528;2024-01-30T12:02:02;12.10;65.50
4578;DHT22;2301;47.354;8.528;2024-01-30T12:04:31;12.30;65.10
4578;DHT22;2301;47.354;8.528;2024-01-30T12:06:58;12.30;63.30
4578;DHT22;2301;47.354;8.528;2024-01-30T12:09:25;12.40;63.00
4578;DHT22;2301;47.354;8.528;2024-01-30T12:11:53;12.50;63.00
4578;DHT22;2301;47.354;8.528;2024-01-30T12:14:22;12.60;62.90
4578;DHT22;2301;47.354;8.528;2024-01-30T12:16:50;12.70;62.80
4578;DHT22;2301;47.354;8.528;2024-01-30T12:19:24;12.80;62.60
4578;DHT22;2301;47.354;8.528;2024-01-30T12:21:56;12.90;62.40
4578;DHT22;2301;47.354;8.528;2024-01-30T12:24:24;13.10;62.10
4578;DHT22;2301;47.354;8.528;2024-01-30T12:26:51;13.10;61.30
4578;DHT22;2301;47.354;8.528;2024-01-30T12:29:20;13.20;60.50
4578;DHT22;2301;47.354;8.528;2024-01-30T12:31:47;13.20;59.80
4578;DHT22;2301;47.354;8.528;2024-01-30T12:34:14;13.20;59.40
4578;DHT22;2301;47.354;8.528;2024-01-30T12:36:43;13.20;59.20
4578;DHT22;2301;47.354;8.528;2024-01-30T12:39:12;13.30;58.90
4578;DHT22;2301;47.354;8.528;2024-01-30T12:41:40;13.40;58.90
4578;DHT22;2301;47.354;8.528;2024-01-30T12:44:07;13.40;58.90
4578;DHT22;2301;47.354;8.528;2024-01-30T12:46:34;13.50;58.60
4578;DHT22;2301;47.354;8.528;2024-01-30T12:49:02;13.60;58.50
4578;DHT22;2301;47.354;8.528;2024-01-30T12:51:29;13.70;58.60
4578;DHT22;2301;47.354;8.528;2024-01-30T12:53:56;13.90;59.20
4578;DHT22;2301;47.354;8.528;2024-01-30T12:56:25;14.00;59.20
4578;DHT22;2301;47.354;8.528;2024-01-30T12:58:52;14.20;59.00
4578;DHT22;2301;47.354;8.528;2024-01-30T13:01:19;14.40;58.60
4578;DHT22;2301;47.354;8.528;2024-01-30T13:03:47;14.60;58.20
4578;DHT22;2301;47.354;8.528;2024-01-30T13:06:14;14.70;57.70
4578;DHT22;2301;47.354;8.528;2024-01-30T13:08:40;14.80;57.30
4578;DHT22;2301;47.354;8.528;2024-01-30T13:11:07;14.90;56.60
4578;DHT22;2301;47.354;8.528;2024-01-30T13:13:37;14.80;55.10
4578;DHT22;2301;47.354;8.528;2024-01-30T13:16:05;14.80;54.90
4578;DHT22;2301;47.354;8.528;2024-01-30T13:18:32;14.80;54.20
4578;DHT22;2301;47.354;8.528;2024-01-30T13:20:59;14.80;53.60
4578;DHT22;2301;47.354;8.528;2024-01-30T13:23:26;14.80;53.60
4578;DHT22;2301;47.354;8.528;2024-01-30T13:25:53;14.80;53.80
4578;DHT22;2301;47.354;8.528;2024-01-30T13:28:24;14.80;53.50
4578;DHT22;2301;47.354;8.528;2024-01-30T13:30:52;14.70;53.80
4578;DHT22;2301;47.354;8.528;2024-01-30T13:33:19;14.80;53.80
4578;DHT22;2301;47.354;8.528;2024-01-30T13:35:46;14.80;53.60
4578;DHT22;2301;47.354;8.528;2024-01-30T13:38:14;14.80;53.30
4578;DHT22;2301;47.354;8.528;2024-01-30T13:40:41;14.80;52.70
4578;DHT22;2301;47.354;8.528;2024-01-30T13:43:08;14.90;52.60
4578;DHT22;2301;47.354;8.528;2024-01-30T13:45:35;14.80;52.90
4578;DHT22;2301;47.354;8.528;2024-01-30T13:48:04;14.80;52.70
4578;DHT22;2301;47.354;8.528;2024-01-30T13:50:31;14.80;52.60
4578;DHT22;2301;47.354;8.528;2024-01-30T13:52:59;14.80;54.00
4578;DHT22;2301;47.354;8.528;2024-01-30T13:55:26;14.90;56.70
4578;DHT22;2301;47.354;8.528;2024-01-30T13:57:53;14.90;54.50
4578;DHT22;2301;47.354;8.528;2024-01-30T14:00:21;14.90;53.10
4578;DHT22;2301;47.354;8.528;2024-01-30T14:02:48;14.90;52.60
4578;DHT22;2301;47.354;8.528;2024-01-30T14:05:17;14.80;52.90
4578;DHT22;2301;47.354;8.528;2024-01-30T14:07:44;14.80;52.90
4578;DHT22;2301;47.354;8.528;2024-01-30T14:10:12;14.80;52.90
4578;DHT22;2301;47.354;8.528;2024-01-30T14:12:39;14.60;52.10
4578;DHT22;2301;47.354;8.528;2024-01-30T14:15:07;14.60;52.80
4578;DHT22;2301;47.354;8.528;2024-01-30T14:17:35;14.60;52.30
4578;DHT22;2301;47.354;8.528;2024-01-30T14:20:02;14.60;52.70
4578;DHT22;2301;47.354;8.528;2024-01-30T14:22:31;14.50;52.30
4578;DHT22;2301;47.354;8.528;2024-01-30T14:24:59;14.60;52.30
4578;DHT22;2301;47.354;8.528;2024-01-30T14:27:26;14.50;52.20
4578;DHT22;2301;47.354;8.528;2024-01-30T14:29:53;14.50;52.70
4578;DHT22;2301;47.354;8.528;2024-01-30T14:32:20;14.40;52.50
4578;DHT22;2301;47.354;8.528;2024-01-30T14:34:47;14.40;52.50
4578;DHT22;2301;47.354;8.528;2024-01-30T14:37:14;14.30;53.00
4578;DHT22;2301;47.354;8.528;2024-01-30T14:39:43;14.20;53.70
4578;DHT22;2301;47.354;8.528;2024-01-30T14:42:09;14.20;54.80
4578;DHT22;2301;47.354;8.528;2024-01-30T14:44:36;14.10;54.70
4578;DHT22;2301;47.354;8.528;2024-01-30T14:47:05;14.10;54.10
4578;DHT22;2301;47.354;8.528;2024-01-30T14:49:32;14.00;53.70
4578;DHT22;2301;47.354;8.528;2024-01-30T14:51:59;13.90;53.50
4578;DHT22;2301;47.354;8.528;2024-01-30T14:54:26;13.90;53.80
4578;DHT22;2301;47.354;8.528;2024-01-30T14:56:54;13.80;53.90
4578;DHT22;2301;47.354;8.528;2024-01-30T14:59:21;13.80;54.00
4578;DHT22;2301;47.354;8.528;2024-01-30T15:01:48;13.70;54.30
4578;DHT22;2301;47.354;8.528;2024-01-30T15:04:15;13.70;55.10
4578;DHT22;2301;47.354;8.528;2024-01-30T15:06:42;13.60;55.00
4578;DHT22;2301;47.354;8.528;2024-01-30T15:09:11;13.50;54.40
4578;DHT22;2301;47.354;8.528;2024-01-30T15:11:40;13.50;54.40
4578;DHT22;2301;47.354;8.528;2024-01-30T15:14:08;13.40;54.30
4578;DHT22;2301;47.354;8.528;2024-01-30T15:16:36;13.40;54.30
4578;DHT22;2301;47.354;8.528;2024-01-30T15:19:03;13.30;54.40
4578;DHT22;2301;47.354;8.528;2024-01-30T15:21:30;13.30;54.80
4578;DHT22;2301;47.354;8.528;2024-01-30T15:23:57;13.30;55.30
4578;DHT22;2301;47.354;8.528;2024-01-30T15:26:25;13.20;55.50
4578;DHT22;2301;47.354;8.528;2024-01-30T15:28:52;13.20;55.80
4578;DHT22;2301;47.354;8.528;2024-01-30T15:31:20;13.20;56.20
4578;DHT22;2301;47.354;8.528;2024-01-30T15:33:47;13.10;56.50
4578;DHT22;2301;47.354;8.528;2024-01-30T15:36:14;13.10;57.00
4578;DHT22;2301;47.354;8.528;2024-01-30T15:38:41;13.00;57.20
4578;DHT22;2301;47.354;8.528;2024-01-30T15:41:09;12.90;57.20
4578;DHT22;2301;47.354;8.528;2024-01-30T15:43:36;12.80;57.20
4578;DHT22;2301;47.354;8.528;2024-01-30T15:46:03;12.80;57.20
4578;DHT22;2301;47.354;8.528;2024-01-30T15:48:31;12.60;56.70
4578;DHT22;2301;47.354;8.528;2024-01-30T15:50:59;12.60;56.50
4578;DHT22;2301;47.354;8.528;2024-01-30T15:53:26;12.50;56.40
4578;DHT22;2301;47.354;8.528;2024-01-30T15:55:53;12.40;56.50
4578;DHT22;2301;47.354;8.528;2024-01-30T15:58:20;12.30;57.10
4578;DHT22;2301;47.354;8.528;2024-01-30T16:00:47;12.20;56.30
4578;DHT22;2301;47.354;8.528;2024-01-30T16:03:14;12.10;56.00
4578;DHT22;2301;47.354;8.528;2024-01-30T16:05:43;12.00;56.00
4578;DHT22;2301;47.354;8.528;2024-01-30T16:08:10;11.90;56.10
4578;DHT22;2301;47.354;8.528;2024-01-30T16:10:37;11.90;56.50
4578;DHT22;2301;47.354;8.528;2024-01-30T16:13:04;11.90;56.80
4578;DHT22;2301;47.354;8.528;2024-01-30T16:15:31;11.80;57.10